createdAt,value
2023-02-12T00:00:41.676Z,75.65
2023-02-12T00:05:42.434Z,60.70
2023-02-12T00:10:44.028Z,61.22
2023-02-12T00:15:44.921Z,52.62
2023-02-12T00:20:45.683Z,65.20
2023-02-12T00:25:46.580Z,64.72
2023-02-12T00:30:47.485Z,66.28
2023-02-12T00:35:56.280Z,69.78
2023-02-12T00:40:57.185Z,70.43
2023-02-12T00:45:58.605Z,81.95
2023-02-12T00:51:01.374Z,85.40
2023-02-12T00:56:02.779Z,82.90
2023-02-12T01:01:03.792Z,79.95
2023-02-12T01:06:05.315Z,73.05
2023-02-12T01:11:06.616Z,73.87
2023-02-12T01:16:19.411Z,76.90
2023-02-12T01:21:26.217Z,75.25
2023-02-12T01:26:28.041Z,72.85
2023-02-12T01:31:32.002Z,70.78
2023-02-12T01:36:33.893Z,74.35
2023-02-12T01:41:38.873Z,77.20
2023-02-12T01:46:41.042Z,76.70
2023-02-12T01:51:44.944Z,71.18
2023-02-12T01:56:47.135Z,82.82
2023-02-12T02:01:48.217Z,79.53
2023-02-12T02:07:00.477Z,71.62
2023-02-12T02:12:19.865Z,71.85
2023-02-12T02:19:01.879Z,72.35
2023-02-12T02:29:02.104Z,73.55
2023-02-12T02:34:11.431Z,75.00
2023-02-12T02:40:54.079Z,81.30
2023-02-12T02:46:02.419Z,81.10
2023-02-12T02:51:11.173Z,69.12
2023-02-12T02:56:17.040Z,84.35
2023-02-12T03:01:38.198Z,78.78
2023-02-12T03:06:54.910Z,78.12
2023-02-12T03:12:00.929Z,79.40
2023-02-12T03:17:13.315Z,75.25
2023-02-12T03:22:19.401Z,74.68
2023-02-12T03:27:28.833Z,74.57
2023-02-12T03:33:01.174Z,78.05
2023-02-12T03:38:40.940Z,79.05
2023-02-12T03:43:59.191Z,77.28
2023-02-12T03:49:09.106Z,78.00
2023-02-12T03:54:13.308Z,74.90
2023-02-12T03:59:14.166Z,68.03
2023-02-12T04:04:15.535Z,70.22
2023-02-12T04:09:17.221Z,75.97
2023-02-12T04:14:54.363Z,77.55
2023-02-12T04:20:41.440Z,81.97
2023-02-12T04:27:16.588Z,81.82
2023-02-12T04:32:34.748Z,77.95
2023-02-12T04:37:41.028Z,78.55
2023-02-12T04:42:43.417Z,78.80
2023-02-12T04:47:44.191Z,85.37
2023-02-12T04:52:45.628Z,71.70
2023-02-12T04:57:47.081Z,94.37
2023-02-12T05:02:47.818Z,97.57
2023-02-12T05:07:48.589Z,81.97
2023-02-12T05:12:51.908Z,82.93
2023-02-12T05:22:53.511Z,82.57
2023-02-12T05:27:55.872Z,87.18
2023-02-12T05:32:56.609Z,87.00
2023-02-12T05:37:57.349Z,88.60
2023-02-12T05:42:58.166Z,79.22
2023-02-12T05:47:59.151Z,85.50
2023-02-12T05:53:00.541Z,85.55
2023-02-12T05:58:01.270Z,74.60
2023-02-12T06:03:02.039Z,72.80
2023-02-12T06:08:03.064Z,77.82
2023-02-12T06:13:03.876Z,68.32
2023-02-12T06:18:04.673Z,74.00
2023-02-12T06:23:05.400Z,80.70
2023-02-12T06:28:06.469Z,91.35
2023-02-12T06:33:07.270Z,78.57
2023-02-12T06:38:08.520Z,75.95
2023-02-12T06:43:09.550Z,77.05
2023-02-12T06:48:10.292Z,66.07
2023-02-12T06:53:11.067Z,77.93
2023-02-12T06:58:11.827Z,62.28
2023-02-12T07:03:12.560Z,61.42
2023-02-12T07:08:14.449Z,66.90
2023-02-12T07:13:15.438Z,54.17
2023-02-12T07:18:16.234Z,66.72
2023-02-12T07:23:16.973Z,77.57
2023-02-12T07:28:17.857Z,74.82
2023-02-12T07:33:19.113Z,69.90
2023-02-12T07:38:19.844Z,71.90
2023-02-12T07:43:20.645Z,81.78
2023-02-12T07:48:21.381Z,75.15
2023-02-12T07:53:22.114Z,72.80
2023-02-12T07:58:22.856Z,64.95
2023-02-12T08:03:24.040Z,68.35
2023-02-12T08:08:24.863Z,78.03
2023-02-12T08:13:25.769Z,90.15
2023-02-12T08:18:26.565Z,81.43
2023-02-12T08:23:27.278Z,88.40
2023-02-12T08:28:28.295Z,82.47
2023-02-12T08:33:29.131Z,87.90
2023-02-12T08:38:31.846Z,91.90
2023-02-12T08:43:33.069Z,80.05
2023-02-12T08:48:33.874Z,85.93
2023-02-12T08:53:35.013Z,90.65
2023-02-12T08:58:36.923Z,77.80
2023-02-12T09:03:38.316Z,90.50
2023-02-12T09:08:39.637Z,84.00
2023-02-12T09:13:40.531Z,89.47
2023-02-12T09:18:41.678Z,91.82
2023-02-12T09:23:43.471Z,89.20
2023-02-12T09:28:44.455Z,83.75
2023-02-12T09:33:45.607Z,82.43
2023-02-12T09:38:47.439Z,86.53
2023-02-12T09:47:59.744Z,84.75
2023-02-12T09:53:01.453Z,82.70
2023-02-12T09:58:10.446Z,77.20
2023-02-12T10:03:15.010Z,82.60
2023-02-12T10:10:01.200Z,69.28
2023-02-12T10:15:55.865Z,65.25
2023-02-12T10:21:14.948Z,63.47
2023-02-12T10:26:25.192Z,50.42
2023-02-12T10:31:31.775Z,56.40
2023-02-12T10:36:41.633Z,76.43
2023-02-12T10:41:46.979Z,79.32
2023-02-12T10:46:47.900Z,84.28
2023-02-12T10:52:21.223Z,81.50
2023-02-12T10:57:25.632Z,69.97
2023-02-12T11:02:29.951Z,69.60
2023-02-12T11:07:46.945Z,72.90
2023-02-12T11:12:48.451Z,76.30
2023-02-12T11:18:04.326Z,63.47
2023-02-12T11:23:23.597Z,58.40
2023-02-12T11:28:24.922Z,60.30
2023-02-12T11:33:44.885Z,47.65
2023-02-12T11:38:54.507Z,52.47
2023-02-12T11:43:55.889Z,56.28
2023-02-12T11:48:57.409Z,66.20
2023-02-12T11:54:01.620Z,58.38
2023-02-12T11:59:17.173Z,42.70
2023-02-12T12:04:23.420Z,41.03
2023-02-12T12:09:32.422Z,51.70
2023-02-12T12:15:13.658Z,38.95
2023-02-12T12:20:23.110Z,46.92
2023-02-12T12:25:30.979Z,41.20
2023-02-12T12:32:25.593Z,45.70
2023-02-12T12:43:09.643Z,17.83
2023-02-12T12:48:39.587Z,18.67
2023-02-12T12:57:10.751Z,30.50
2023-02-12T13:10:52.042Z,28.98
2023-02-12T13:16:13.941Z,22.60
2023-02-12T13:23:58.950Z,24.15
2023-02-12T13:29:14.796Z,30.98
2023-02-12T13:34:18.204Z,45.85
2023-02-12T13:39:45.506Z,36.88
2023-02-12T13:50:30.766Z,24.40
2023-02-12T13:55:56.529Z,27.37
2023-02-12T14:01:01.821Z,28.73
2023-02-12T14:06:19.441Z,20.45
2023-02-12T14:11:23.962Z,15.10
2023-02-12T14:16:57.789Z,20.35
2023-02-12T14:22:09.569Z,23.67
2023-02-12T14:28:20.593Z,28.73
2023-02-12T14:33:25.423Z,23.12
2023-02-12T14:40:15.641Z,23.83
2023-02-12T14:45:35.919Z,25.37
2023-02-12T14:50:42.533Z,24.37
2023-02-12T14:55:46.450Z,25.73
2023-02-12T15:00:51.627Z,29.00
2023-02-12T15:09:34.919Z,32.33
2023-02-12T15:14:42.282Z,39.00
2023-02-12T15:20:01.961Z,39.53
2023-02-12T15:25:26.443Z,42.70
2023-02-12T15:30:32.283Z,40.45
2023-02-12T15:35:39.034Z,40.05
2023-02-12T15:40:54.229Z,36.83
2023-02-12T15:45:55.453Z,31.58
2023-02-12T15:51:28.882Z,34.63
2023-02-12T15:56:31.187Z,37.03
2023-02-12T16:01:34.313Z,36.90
2023-02-12T16:06:38.669Z,35.83
2023-02-12T16:11:43.247Z,35.15
2023-02-12T16:16:49.642Z,36.30
2023-02-12T16:22:09.680Z,36.40
2023-02-12T16:27:23.374Z,36.28
2023-02-12T16:32:32.177Z,34.40
2023-02-12T16:37:55.526Z,37.13
2023-02-12T16:48:24.600Z,34.40
2023-02-12T16:53:32.800Z,38.70
2023-02-12T16:58:33.585Z,35.00
2023-02-12T17:03:34.983Z,36.10
2023-02-12T17:08:35.723Z,31.92
2023-02-12T17:13:37.051Z,37.30
2023-02-12T17:18:38.057Z,38.75
2023-02-12T17:23:41.065Z,37.85
2023-02-12T17:28:41.999Z,36.88
2023-02-12T17:33:42.938Z,35.50
2023-02-12T17:38:43.755Z,32.75
2023-02-12T17:43:45.786Z,35.83
2023-02-12T17:48:46.517Z,33.75
2023-02-12T17:53:47.819Z,36.42
2023-02-12T17:58:48.924Z,31.23
2023-02-12T18:03:50.849Z,37.30
2023-02-12T18:08:51.846Z,31.60
2023-02-12T18:13:55.133Z,33.10
2023-02-12T18:23:57.258Z,31.45
2023-02-12T18:28:58.608Z,32.90
2023-02-12T18:33:59.384Z,29.37
2023-02-12T18:39:00.368Z,31.90
2023-02-12T18:44:01.986Z,34.45
2023-02-12T18:49:03.408Z,35.15
2023-02-12T18:54:07.515Z,30.73
2023-02-12T18:59:10.870Z,35.63
2023-02-12T19:09:15.826Z,38.67
2023-02-12T19:14:18.824Z,46.00
2023-02-12T19:19:20.239Z,46.70
2023-02-12T19:24:21.141Z,50.72
2023-02-12T19:29:21.902Z,50.28
2023-02-12T19:34:24.109Z,51.65
2023-02-12T19:39:24.911Z,47.78
2023-02-12T19:44:26.111Z,45.47
2023-02-12T19:49:28.219Z,42.70
2023-02-12T19:54:29.029Z,47.33
2023-02-12T19:59:30.039Z,47.03
2023-02-12T20:04:30.938Z,52.85
2023-02-12T20:09:31.674Z,48.40
2023-02-12T20:14:32.547Z,42.65
2023-02-12T20:19:33.274Z,45.95
2023-02-12T20:24:34.107Z,45.85
2023-02-12T20:29:34.841Z,46.30
2023-02-12T20:34:49.956Z,47.88
2023-02-12T20:39:51.495Z,42.60
2023-02-12T20:44:52.338Z,44.42
2023-02-12T20:49:57.242Z,44.70
2023-02-12T20:54:58.188Z,43.63
2023-02-12T20:59:58.928Z,46.33
2023-02-12T21:04:59.883Z,44.38
2023-02-12T21:10:00.999Z,48.00
2023-02-12T21:15:02.621Z,51.78
2023-02-12T21:20:04.614Z,43.08
2023-02-12T21:25:05.743Z,48.53
2023-02-12T21:30:08.656Z,43.90
2023-02-12T21:35:09.441Z,49.00
2023-02-12T21:40:10.651Z,53.55
2023-02-12T21:45:11.545Z,47.03
2023-02-12T21:50:13.914Z,48.75
2023-02-12T21:55:14.791Z,56.63
2023-02-12T22:00:16.098Z,53.38
2023-02-12T22:05:16.953Z,56.63
2023-02-12T22:10:17.881Z,62.40
2023-02-12T22:15:18.818Z,61.78
2023-02-12T22:20:19.712Z,57.05
2023-02-12T22:25:21.341Z,57.08
2023-02-12T22:30:22.163Z,56.45
2023-02-12T22:35:22.904Z,61.53
2023-02-12T22:40:23.685Z,59.45
2023-02-12T22:45:24.597Z,58.67
2023-02-12T22:50:25.824Z,57.78
2023-02-12T22:55:26.569Z,57.92
2023-02-12T23:00:27.342Z,55.47
2023-02-12T23:05:28.311Z,58.22
2023-02-12T23:10:29.114Z,61.37
2023-02-12T23:15:30.155Z,61.78
2023-02-12T23:20:30.899Z,57.35
2023-02-12T23:25:31.667Z,57.22
2023-02-12T23:30:32.516Z,60.70
2023-02-12T23:35:33.342Z,55.33
2023-02-12T23:40:34.099Z,59.67
2023-02-12T23:45:34.944Z,52.50
2023-02-12T23:50:35.723Z,58.05
2023-02-12T23:55:37.366Z,54.70
